Hlavní strana
METAR-TAF:

METAR-TAF

Letiště :

Riohacha, Kolumbie

zeměpisná šířka: 11-32N, zeměpisná délka: 072-56W, výška: 4 m

Aktuální stav počasí

Zpráva byla vytvořena před 14 hodinami a 27 minutami, v 20:00 UTC
Východní vítr 13 kt s nárazy do 23 kt
Teplota 34°C
Vlhkost vzduchu 39%
Tlak 1008 hPa
Viditelnost 10 km a více
Skoro jasno ve výšce 1000 ft

METAR: SKRH 292000Z 08013G23KT 9999 FEW010 34/18 A2977

Čas: 05:27 (10:27 UTC)


TAF: chybějící

Stav a předpovědi počasí z více než 4 000 letišť (zprávy METAR a TAF).

Červené a žluté tečky na mapě představují dostupné meteorologické stanice.

Když kurzor umístíte na tečku, zobrazí se název stanice.

Pak kliknutím zobrazíte stav a předpověď počasí.

Chcete-li změnit mapu, kliknutím na zelené tlačítko se znaménkem +mapu přiblížíte, kliknutím na zelené tlačítko se znaménkem – mapu oddálíte a kliknutím na zelené šipky přejdete na sousední mapy.


METAR-TAF: